Time;durP1;ratioP1;P1;durP2;ratioP2;P2;SDS_P1;SDS_P2;PMS_P1;PMS_P2;Temp;Humidity;BMP_temperature;BMP_pressure;BME280_temperature;BME280_humidity;BME280_pressure;Samples;Min_cycle;Max_cycle;Signal;HPM_P1;HPM_P2
2023/03/16 00:03:48;;;;;;;1.03;0.60;;;;;;;16.40;55.46;96874.63;10387692;28;20045;-34
2023/03/16 00:08:48;;;;;;;1.80;0.80;;;;;;;16.39;54.79;96872.06;10388789;28;20045;-33
2023/03/16 00:13:48;;;;;;;1.33;0.80;;;;;;;16.42;55.03;96879.69;10388667;28;20291;-33
2023/03/16 00:18:49;;;;;;;4.47;0.77;;;;;;;16.38;54.79;96873.75;10385783;28;20031;-34
2023/03/16 00:23:49;;;;;;;3.27;1.10;;;;;;;16.41;54.86;96883.91;10389852;28;20041;-36
2023/03/16 00:28:53;;;;;;;1.77;0.80;;;;;;;16.41;54.48;96881.38;10391587;28;20575;-32
2023/03/16 00:33:53;;;;;;;2.80;0.75;;;;;;;16.45;54.45;96875.50;10376639;28;20037;-33
2023/03/16 00:38:54;;;;;;;2.65;0.80;;;;;;;16.46;54.00;96882.25;10386882;28;20034;-34
2023/03/16 00:43:54;;;;;;;1.88;0.52;;;;;;;16.42;54.52;96878.00;10378051;28;20370;-34
2023/03/16 00:48:55;;;;;;;1.03;0.50;;;;;;;16.47;54.15;96867.94;10395463;28;20523;-34
2023/03/16 00:53:55;;;;;;;1.50;0.85;;;;;;;16.54;54.48;96857.91;10393167;28;20339;-33
2023/03/16 00:58:56;;;;;;;2.35;0.60;;;;;;;16.55;54.34;96854.53;10390656;28;20018;-33
2023/03/16 01:03:58;;;;;;;2.37;0.63;;;;;;;16.52;53.90;96852.00;10394326;28;20038;-34
2023/03/16 01:08:58;;;;;;;1.30;0.60;;;;;;;16.42;53.66;96842.63;10389970;28;20033;-34
2023/03/16 01:13:59;;;;;;;3.70;1.17;;;;;;;16.46;53.82;96844.34;10385619;28;20529;-34
2023/03/16 01:19:00;;;;;;;1.40;0.65;;;;;;;16.42;54.25;96829.16;10383907;28;20448;-34
2023/03/16 01:24:01;;;;;;;1.10;1.00;;;;;;;16.44;53.71;96843.50;10386827;28;20026;-30
2023/03/16 01:29:01;;;;;;;2.20;0.50;;;;;;;16.42;54.05;96830.00;10384228;28;20037;-34
2023/03/16 01:34:03;;;;;;;0.90;0.47;;;;;;;16.37;54.17;96820.69;10402465;28;20038;-33
2023/03/16 01:39:05;;;;;;;1.10;0.50;;;;;;;16.39;53.98;96821.53;10386438;28;20550;-34
2023/03/16 01:44:27;;;;;;;0.88;0.60;;;;;;;16.38;54.19;96819.84;10397338;28;20109;-33
2023/03/16 01:49:35;;;;;;;1.10;0.63;;;;;;;16.38;53.77;96825.75;10383499;28;20037;-34
2023/03/16 01:54:49;;;;;;;1.88;0.52;;;;;;;16.37;53.62;96826.56;10386327;28;20026;-34
2023/03/16 01:59:56;;;;;;;0.40;0.30;;;;;;;16.36;53.94;96817.28;10356964;28;20068;-34
2023/03/16 02:05:11;;;;;;;2.15;1.00;;;;;;;16.33;53.97;96817.25;10395204;28;20030;-34
2023/03/16 02:10:15;;;;;;;1.38;0.40;;;;;;;16.44;53.69;96820.75;10402319;28;20404;-34
2023/03/16 02:15:16;;;;;;;1.25;0.60;;;;;;;16.50;53.67;96815.75;10393602;28;20026;-34
2023/03/16 02:20:21;;;;;;;0.45;0.30;;;;;;;16.41;52.96;96810.63;10398530;28;20021;-34
2023/03/16 02:25:28;;;;;;;1.67;0.60;;;;;;;16.37;52.72;96808.88;10391069;28;20107;-34
2023/03/16 02:30:29;;;;;;;;;;;;;;;16.35;53.06;96805.47;10395721;28;20117;-36
2023/03/16 02:35:34;;;;;;;0.75;0.40;;;;;;;16.29;52.61;96805.41;10409861;28;19928;-34
2023/03/16 02:40:37;;;;;;;0.47;0.40;;;;;;;16.29;52.40;96792.78;10400340;28;20433;-33
2023/03/16 02:45:57;;;;;;;1.73;0.60;;;;;;;16.30;52.35;96797.00;10387860;28;20409;-35
2023/03/16 02:51:00;;;;;;;0.65;0.47;;;;;;;16.26;52.40;96790.22;10399301;28;20025;-33
2023/03/16 02:56:01;;;;;;;0.35;0.35;;;;;;;16.25;51.96;96773.38;10383049;28;20064;-33
2023/03/16 03:01:03;;;;;;;0.65;0.40;;;;;;;16.24;51.81;96765.78;10380211;28;20134;-34
2023/03/16 03:06:06;;;;;;;1.70;0.50;;;;;;;16.24;51.70;96759.06;10385781;28;20401;-34
2023/03/16 03:11:09;;;;;;;1.17;0.50;;;;;;;16.24;50.92;96760.72;10387666;28;20029;-34
2023/03/16 03:16:11;;;;;;;1.90;0.30;;;;;;;16.22;51.66;96757.34;10385923;28;20026;-34
2023/03/16 03:21:12;;;;;;;1.65;0.80;;;;;;;16.27;50.88;96765.84;10381658;28;20022;-33
2023/03/16 03:26:14;;;;;;;1.30;0.50;;;;;;;16.34;51.23;96768.41;10399650;28;20026;-34
2023/03/16 03:31:18;;;;;;;0.57;0.35;;;;;;;16.42;51.63;96761.78;10390862;28;20026;-34
2023/03/16 03:36:21;;;;;;;2.05;0.30;;;;;;;16.43;50.10;96747.44;10390865;28;20169;-33
2023/03/16 03:41:21;;;;;;;0.75;0.45;;;;;;;16.33;50.35;96748.19;10409032;28;20516;-33
2023/03/16 03:46:23;;;;;;;0.65;0.55;;;;;;;16.30;50.64;96751.53;10388817;28;20033;-34
2023/03/16 03:51:24;;;;;;;1.75;0.40;;;;;;;16.29;50.48;96757.41;10382526;28;20060;-35
2023/03/16 03:56:34;;;;;;;0.70;0.57;;;;;;;16.30;50.69;96759.09;10383364;28;20052;-33
2023/03/16 04:01:35;;;;;;;1.55;0.70;;;;;;;16.25;50.67;96743.06;10383353;28;20034;-34
2023/03/16 04:06:35;;;;;;;0.57;0.40;;;;;;;16.28;50.59;96758.25;10383782;28;20033;-36
2023/03/16 04:11:36;;;;;;;1.23;0.50;;;;;;;16.25;50.03;96750.66;10390293;28;20037;-34
2023/03/16 04:16:37;;;;;;;0.52;0.40;;;;;;;16.24;50.08;96741.38;10386713;28;20285;-34
2023/03/16 04:21:38;;;;;;;0.40;0.40;;;;;;;16.27;49.93;96745.63;10385661;28;20032;-34
2023/03/16 04:26:39;;;;;;;0.73;0.40;;;;;;;16.25;50.24;96748.13;10393024;28;20036;-34
2023/03/16 04:31:42;;;;;;;1.50;0.50;;;;;;;16.21;50.01;96751.44;10392806;28;20025;-36
2023/03/16 04:36:43;;;;;;;1.45;0.50;;;;;;;16.24;49.85;96746.44;10376659;28;20034;-33
2023/03/16 04:41:44;;;;;;;1.48;0.60;;;;;;;16.17;49.80;96744.69;10401140;28;20029;-35
2023/03/16 04:46:53;;;;;;;0.70;0.60;;;;;;;16.34;49.51;96738.09;10388848;28;20390;-33
2023/03/16 04:51:56;;;;;;;0.82;0.40;;;;;;;16.38;49.51;96728.91;10387278;28;20052;-33
2023/03/16 04:56:56;;;;;;;0.93;0.70;;;;;;;16.43;47.90;96725.56;10392924;28;20025;-33
2023/03/16 05:02:04;;;;;;;0.50;0.50;;;;;;;16.43;47.99;96717.13;10386554;28;20370;-34
2023/03/16 05:07:05;;;;;;;0.95;0.50;;;;;;;16.45;47.46;96715.50;10399082;28;20144;-33
2023/03/16 05:12:10;;;;;;;0.70;0.52;;;;;;;16.47;47.08;96708.75;10365383;28;20045;-35
2023/03/16 05:17:13;;;;;;;2.00;0.50;;;;;;;16.47;47.57;96706.22;10342838;28;20397;-34
2023/03/16 05:22:15;;;;;;;0.47;0.40;;;;;;;16.46;47.85;96702.84;10343505;28;20057;-33
2023/03/16 05:27:33;;;;;;;2.03;0.45;;;;;;;16.48;47.14;96700.34;10331035;28;20134;-34
2023/03/16 05:32:33;;;;;;;0.88;0.55;;;;;;;16.41;47.23;96686.81;10340816;28;20029;-35
2023/03/16 05:37:36;;;;;;;0.93;0.60;;;;;;;16.43;47.21;96695.25;10342985;28;20033;-37
2023/03/16 05:42:38;;;;;;;1.77;0.50;;;;;;;16.38;46.51;96698.59;10342474;28;20520;-34
2023/03/16 05:47:40;;;;;;;1.25;0.50;;;;;;;16.36;47.23;96690.94;10366404;28;20037;-33
2023/03/16 05:52:43;;;;;;;2.10;0.40;;;;;;;16.44;44.33;96703.69;10388568;28;20046;-34
2023/03/16 05:57:50;;;;;;;1.08;0.47;;;;;;;16.48;43.48;96713.84;10385410;28;20034;-34
2023/03/16 06:02:51;;;;;;;0.85;0.50;;;;;;;16.56;43.85;96712.22;10388316;28;20417;-35
2023/03/16 06:07:52;;;;;;;3.90;1.08;;;;;;;16.60;48.00;96721.50;10372643;28;20501;-35
2023/03/16 06:12:53;;;;;;;1.25;0.68;;;;;;;16.61;48.96;96723.19;10394856;28;20033;-33
2023/03/16 06:17:55;;;;;;;8.75;1.00;;;;;;;16.59;47.60;96721.47;10377734;28;20501;-34
2023/03/16 06:22:55;;;;;;;2.65;0.50;;;;;;;16.61;44.75;96733.28;10391825;28;20058;-34
2023/03/16 06:27:56;;;;;;;5.70;1.10;;;;;;;16.20;42.08;96732.06;10373744;28;20033;-34
2023/03/16 06:32:58;;;;;;;4.45;1.27;;;;;;;15.99;42.24;96721.78;10378057;28;20026;-35
2023/03/16 06:37:59;;;;;;;5.55;0.80;;;;;;;16.27;44.18;96713.63;10385658;28;20030;-34
2023/03/16 06:43:20;;;;;;;3.13;0.80;;;;;;;16.30;43.79;96711.09;10386669;28;20519;-35
2023/03/16 06:48:20;;;;;;;1.38;0.65;;;;;;;16.38;44.64;96713.75;10382991;28;20033;-33
2023/03/16 06:53:21;;;;;;;7.10;1.13;;;;;;;16.44;45.54;96714.63;10403831;28;20021;-35
2023/03/16 06:58:22;;;;;;;4.43;0.82;;;;;;;16.44;46.34;96718.84;10377512;28;20022;-34
2023/03/16 07:03:22;;;;;;;2.03;0.60;;;;;;;16.48;45.07;96723.94;10393334;28;20029;-34
2023/03/16 07:08:29;;;;;;;4.72;0.88;;;;;;;16.48;46.21;96731.53;10392001;28;20128;-33
2023/03/16 07:13:29;;;;;;;2.60;0.63;;;;;;;16.51;45.32;96726.47;10386744;28;20029;-34
2023/03/16 07:18:30;;;;;;;3.95;0.60;;;;;;;16.48;45.78;96715.50;10381368;28;20030;-33
2023/03/16 07:23:31;;;;;;;1.58;0.75;;;;;;;16.49;46.15;96691.91;10370152;28;20038;-35
2023/03/16 07:28:37;;;;;;;1.47;0.47;;;;;;;16.58;47.16;96697.03;10381734;28;20033;-34
2023/03/16 07:33:39;;;;;;;3.80;0.90;;;;;;;16.59;48.91;96684.41;10373705;28;20121;-40
2023/03/16 07:38:43;;;;;;;0.68;0.50;;;;;;;16.56;45.75;96658.28;10378723;28;20417;-33
2023/03/16 07:43:45;;;;;;;2.97;0.63;;;;;;;16.54;47.59;96663.31;10380983;28;20036;-36
2023/03/16 07:48:48;;;;;;;2.35;0.70;;;;;;;16.55;45.01;96641.44;10386535;28;20387;-34
2023/03/16 07:53:48;;;;;;;2.22;0.60;;;;;;;16.48;45.49;96622.88;10382155;28;20034;-34
2023/03/16 07:58:57;;;;;;;3.30;1.15;;;;;;;16.54;45.19;96645.63;10388364;28;20493;-34
2023/03/16 08:03:58;;;;;;;1.02;0.63;;;;;;;16.56;44.28;96665.88;10365211;28;20042;-34
2023/03/16 08:08:59;;;;;;;2.47;0.55;;;;;;;16.54;44.69;96670.91;10372908;28;20030;-34
2023/03/16 08:14:06;;;;;;;1.02;0.70;;;;;;;16.54;45.33;96655.72;10385201;28;20021;-35
2023/03/16 08:19:33;;;;;;;2.05;1.13;;;;;;;16.55;45.58;96654.06;10380651;28;20034;-33
2023/03/16 08:24:35;;;;;;;0.65;0.43;;;;;;;16.54;44.61;96659.97;10373034;28;20026;-34
2023/03/16 08:29:37;;;;;;;1.17;0.55;;;;;;;16.55;45.03;96659.94;10377451;28;20041;-35
2023/03/16 08:34:40;;;;;;;0.70;0.40;;;;;;;16.56;45.07;96659.13;10384478;28;20117;-35
2023/03/16 08:39:42;;;;;;;1.33;0.50;;;;;;;16.58;45.23;96656.59;10374868;28;20116;-34
2023/03/16 08:44:47;;;;;;;1.88;0.75;;;;;;;16.57;49.17;96653.25;10375277;28;20061;-34
2023/03/16 08:49:48;;;;;;;1.00;0.50;;;;;;;16.58;50.21;96647.34;10383407;28;20103;-34
2023/03/16 08:54:49;;;;;;;1.63;0.60;;;;;;;16.56;48.58;96665.88;10386298;28;20322;-34
2023/03/16 08:59:50;;;;;;;0.60;0.50;;;;;;;16.59;45.09;96656.63;10387685;28;20513;-35
2023/03/16 09:04:51;;;;;;;1.20;0.40;;;;;;;16.55;45.12;96641.44;10367072;28;20037;-34
2023/03/16 09:09:52;;;;;;;1.98;0.70;;;;;;;16.58;44.91;96643.97;10385214;28;20090;-33
2023/03/16 09:14:53;;;;;;;0.95;0.50;;;;;;;16.57;44.29;96648.19;10386690;28;20033;-36
2023/03/16 09:19:54;;;;;;;0.88;0.47;;;;;;;16.57;43.67;96643.13;10376544;28;20429;-34
2023/03/16 09:24:54;;;;;;;0.88;0.68;;;;;;;16.56;43.81;96608.59;10379152;28;20509;-34
2023/03/16 09:29:55;;;;;;;0.80;0.60;;;;;;;16.57;43.60;96610.28;10383023;28;20045;-34
2023/03/16 09:34:55;;;;;;;1.08;0.43;;;;;;;16.56;43.68;96603.53;10373509;28;20095;-34
2023/03/16 09:39:56;;;;;;;0.50;0.30;;;;;;;16.55;43.74;96601.81;10374935;28;20493;-34
2023/03/16 09:45:15;;;;;;;0.80;0.50;;;;;;;16.55;43.33;96590.88;10382216;28;20524;-34
2023/03/16 09:50:26;;;;;;;0.60;0.43;;;;;;;16.54;43.42;96574.88;10381100;28;20304;-34
2023/03/16 09:55:33;;;;;;;1.38;0.50;;;;;;;16.56;43.76;96578.28;10377717;28;20034;-34
2023/03/16 10:00:40;;;;;;;0.80;0.40;;;;;;;16.57;49.85;96596.78;10379666;28;20021;-32
2023/03/16 10:05:41;;;;;;;1.45;0.50;;;;;;;16.57;50.30;96585.00;10375617;28;20132;-34
2023/03/16 10:11:01;;;;;;;0.40;0.40;;;;;;;16.53;50.56;96585.81;10372218;28;20409;-35
2023/03/16 10:16:20;;;;;;;0.40;0.40;;;;;;;16.59;47.46;96575.75;10374015;28;20567;-35
2023/03/16 10:21:23;;;;;;;0.75;0.40;;;;;;;16.58;46.15;96563.94;10384520;28;20088;-34
2023/03/16 10:26:32;;;;;;;1.00;0.30;;;;;;;16.60;46.37;96576.59;10377377;28;20033;-35
2023/03/16 10:31:34;;;;;;;0.80;0.20;;;;;;;16.59;46.49;96573.22;10373583;28;20030;-34
2023/03/16 10:36:38;;;;;;;0.82;0.32;;;;;;;16.58;46.12;96570.66;10382188;28;20485;-35
2023/03/16 10:41:42;;;;;;;0.57;0.35;;;;;;;16.56;47.06;96575.75;10388668;28;20112;-34
2023/03/16 10:46:49;;;;;;;0.77;0.50;;;;;;;16.58;46.36;96579.13;10374287;28;20065;-34
2023/03/16 10:51:53;;;;;;;0.88;0.40;;;;;;;16.55;46.31;96568.97;10382212;28;20048;-33
2023/03/16 10:56:55;;;;;;;0.85;0.40;;;;;;;16.56;45.69;96580.78;10387801;28;20195;-35
2023/03/16 11:01:55;;;;;;;0.70;0.40;;;;;;;16.56;45.58;96583.31;10371267;28;20045;-34
2023/03/16 11:06:57;;;;;;;1.02;0.30;;;;;;;16.57;45.50;96581.63;10378092;28;20386;-35
2023/03/16 11:11:58;;;;;;;0.63;0.40;;;;;;;16.58;45.21;96579.13;10371468;28;20232;-34
2023/03/16 11:17:05;;;;;;;0.43;0.30;;;;;;;16.62;49.20;96562.28;10379843;28;20030;-33
2023/03/16 11:22:18;;;;;;;3.58;0.55;;;;;;;16.68;48.37;96558.09;10370795;28;20398;-34
2023/03/16 11:27:23;;;;;;;1.98;0.50;;;;;;;16.73;48.31;96551.38;10367924;28;20038;-34
2023/03/16 11:32:29;;;;;;;3.63;0.60;;;;;;;16.71;46.56;96547.97;10377668;28;20156;-34
2023/03/16 11:37:45;;;;;;;1.80;0.47;;;;;;;16.73;46.62;96551.38;10378006;28;20032;-33
2023/03/16 11:43:01;;;;;;;2.63;0.50;;;;;;;16.73;45.43;96545.47;10380845;28;20045;-33
2023/03/16 11:48:05;;;;;;;3.80;0.93;;;;;;;16.67;45.58;96543.78;10368167;28;20040;-33
2023/03/16 11:53:27;;;;;;;7.07;1.00;;;;;;;16.67;46.80;96540.38;10369814;28;20050;-33
2023/03/16 11:58:51;;;;;;;4.38;0.60;;;;;;;16.67;47.28;96537.84;10371928;28;20030;-35
2023/03/16 12:04:11;;;;;;;7.88;1.35;;;;;;;16.68;47.55;96532.81;10368539;28;20045;-33
2023/03/16 12:09:36;;;;;;;1.30;0.60;;;;;;;16.69;47.83;96539.56;10374765;28;20042;-34
2023/03/16 12:15:07;;;;;;;7.28;0.75;;;;;;;16.69;47.92;96534.50;10399659;28;20072;-34
2023/03/16 12:20:13;;;;;;;4.32;0.80;;;;;;;16.68;47.52;96527.75;10367631;28;20037;-32
2023/03/16 12:25:25;;;;;;;6.82;0.80;;;;;;;16.68;47.44;96522.72;10385331;28;20045;-32
2023/03/16 12:30:35;;;;;;;4.82;0.70;;;;;;;16.66;47.42;96519.34;10392949;28;20029;-34
2023/03/16 12:35:56;;;;;;;3.58;0.60;;;;;;;16.72;48.49;96509.25;10374943;28;20045;-33
2023/03/16 12:41:35;;;;;;;0.85;0.70;;;;;;;16.73;50.46;96516.81;10369800;28;20374;-32
2023/03/16 12:46:51;;;;;;;2.47;0.55;;;;;;;16.72;49.61;96498.28;10380691;28;20029;-32
2023/03/16 12:52:04;;;;;;;2.25;0.40;;;;;;;16.70;48.74;96489.88;10384885;28;20387;-32
2023/03/16 12:57:07;;;;;;;2.20;0.50;;;;;;;16.67;48.47;96493.22;10386281;28;20045;-32
2023/03/16 13:02:27;;;;;;;1.75;0.40;;;;;;;16.68;47.94;96497.44;10397909;28;20037;-31
2023/03/16 13:07:30;;;;;;;0.70;0.40;;;;;;;16.64;47.87;96482.25;10379349;28;20045;-33
2023/03/16 13:12:35;;;;;;;1.92;0.40;;;;;;;16.67;47.83;96489.00;10371398;28;20033;-33
2023/03/16 13:17:36;;;;;;;0.80;0.40;;;;;;;16.66;48.07;96478.91;10382434;28;20049;-32
2023/03/16 13:22:48;;;;;;;2.42;0.90;;;;;;;16.67;47.60;96483.09;10384623;28;20393;-32
2023/03/16 13:27:53;;;;;;;0.65;0.38;;;;;;;16.65;47.52;96474.69;10381514;28;20048;-32
2023/03/16 13:32:58;;;;;;;2.65;0.68;;;;;;;16.64;47.38;96467.94;10378007;28;20026;-32
2023/03/16 13:38:06;;;;;;;1.70;0.85;;;;;;;16.60;47.75;96463.72;10378336;28;20521;-32
2023/03/16 13:43:14;;;;;;;5.38;0.77;;;;;;;16.61;47.73;96460.34;10384386;28;20049;-32
2023/03/16 13:48:16;;;;;;;0.93;0.35;;;;;;;16.65;47.22;96451.94;10367460;28;20034;-32
2023/03/16 13:53:23;;;;;;;3.60;0.50;;;;;;;16.71;49.31;96446.88;10383017;28;20405;-31
2023/03/16 13:58:24;;;;;;;;;;;;;;;16.73;50.80;96449.41;10372154;28;20042;-33
2023/03/16 14:03:41;;;;;;;3.65;0.55;;;;;;;16.69;49.79;96443.50;10368850;28;20278;-32
2023/03/16 14:08:47;;;;;;;1.02;0.47;;;;;;;16.66;48.93;96437.59;10381349;28;20038;-30
2023/03/16 14:13:53;;;;;;;2.25;0.50;;;;;;;16.61;48.78;96430.00;10380008;28;20068;-32
2023/03/16 14:19:00;;;;;;;1.98;0.50;;;;;;;16.64;48.89;96421.59;10374833;28;20037;-34
2023/03/16 14:24:06;;;;;;;0.43;0.40;;;;;;;16.62;48.63;96421.59;10376978;28;20096;-32
2023/03/16 14:29:20;;;;;;;0.60;0.28;;;;;;;16.62;48.25;96426.63;10380325;28;20409;-32
2023/03/16 14:34:34;;;;;;;0.60;0.47;;;;;;;16.62;47.63;96426.63;10367247;28;20120;-32
2023/03/16 14:39:34;;;;;;;0.98;0.50;;;;;;;16.64;47.43;96416.53;10368290;28;20041;-32
2023/03/16 14:44:37;;;;;;;1.52;0.40;;;;;;;16.63;47.75;96414.84;10381662;28;20037;-32
2023/03/16 14:49:40;;;;;;;1.63;0.40;;;;;;;16.63;47.94;96407.28;10384284;28;20521;-32
2023/03/16 14:54:40;;;;;;;0.68;0.40;;;;;;;16.62;47.45;96395.47;10369837;28;20033;-33
2023/03/16 14:59:42;;;;;;;0.43;0.40;;;;;;;16.62;47.49;96398.00;10369873;28;20025;-32
2023/03/16 15:04:43;;;;;;;0.93;0.40;;;;;;;16.62;47.57;96401.38;10365117;28;20038;-32
2023/03/16 15:09:44;;;;;;;1.50;0.50;;;;;;;16.66;49.67;96408.13;10366636;28;20120;-32
2023/03/16 15:20:06;;;;;;;0.60;0.20;;;;;;;16.69;49.91;96398.00;10370992;28;20478;-32
2023/03/16 15:25:26;;;;;;;0.93;0.45;;;;;;;16.53;50.12;96386.19;10371973;28;20433;-32
2023/03/16 15:30:27;;;;;;;0.55;0.40;;;;;;;16.61;49.73;96403.91;10373333;28;20049;-32
2023/03/16 15:35:28;;;;;;;1.30;0.30;;;;;;;16.60;48.45;96413.16;10384457;28;20052;-31
2023/03/16 15:40:29;;;;;;;1.35;0.32;;;;;;;16.59;48.31;96420.72;10374844;28;20028;-31
2023/03/16 15:45:30;;;;;;;0.90;0.40;;;;;;;16.53;47.71;96418.22;10386801;28;20034;-32
2023/03/16 15:50:30;;;;;;;0.77;0.55;;;;;;;16.61;47.70;96424.94;10376610;28;20490;-32
2023/03/16 15:55:37;;;;;;;1.40;0.38;;;;;;;16.63;47.28;96427.50;10376061;28;20022;-31
2023/03/16 16:00:38;;;;;;;0.73;0.40;;;;;;;16.61;48.11;96424.94;10375246;28;20494;-32
2023/03/16 16:05:39;;;;;;;0.63;0.52;;;;;;;16.60;47.71;96425.78;10383987;28;20517;-32
2023/03/16 16:10:42;;;;;;;0.63;0.40;;;;;;;16.61;47.45;96439.28;10381964;28;20060;-32
2023/03/16 16:15:44;;;;;;;0.82;0.40;;;;;;;16.60;47.32;96423.28;10387862;28;20061;-33
2023/03/16 16:20:44;;;;;;;0.40;0.30;;;;;;;16.58;47.89;96424.97;10379885;28;20515;-31
2023/03/16 16:25:46;;;;;;;0.80;0.30;;;;;;;16.60;49.49;96418.22;10367901;28;20077;-32
2023/03/16 16:30:46;;;;;;;0.40;0.40;;;;;;;16.67;51.08;96425.81;10380096;28;20117;-32
2023/03/16 16:35:47;;;;;;;0.50;0.30;;;;;;;16.70;50.90;96424.97;10370347;28;20475;-32
2023/03/16 16:40:48;;;;;;;0.82;0.30;;;;;;;16.62;49.92;96414.00;10377276;28;20449;-32
2023/03/16 16:45:49;;;;;;;0.77;0.40;;;;;;;16.62;48.81;96418.22;10374009;28;20037;-33
2023/03/16 16:50:50;;;;;;;1.23;0.40;;;;;;;16.64;48.10;96424.13;10370533;28;20037;-33
2023/03/16 16:55:51;;;;;;;0.35;0.35;;;;;;;16.64;48.24;96412.34;10381909;28;20034;-32
2023/03/16 17:00:54;;;;;;;0.13;0.10;;;;;;;16.65;47.69;96411.50;10382320;28;20033;-32
2023/03/16 17:05:57;;;;;;;0.55;0.22;;;;;;;16.64;47.61;96407.28;10366558;28;20088;-32
2023/03/16 17:10:57;;;;;;;0.40;0.30;;;;;;;16.63;47.64;96408.09;10367483;28;20046;-32
2023/03/16 17:15:57;;;;;;;0.33;0.20;;;;;;;16.59;47.82;96403.03;10387218;28;20046;-32
2023/03/16 17:20:59;;;;;;;1.30;0.33;;;;;;;16.61;47.52;96409.78;10376621;28;20030;-32
2023/03/16 17:26:08;;;;;;;0.47;0.20;;;;;;;16.59;47.29;96406.41;10367194;28;20095;-34
2023/03/16 17:31:11;;;;;;;0.17;0.17;;;;;;;16.65;47.13;96424.13;10384658;28;20510;-35
2023/03/16 17:36:14;;;;;;;0.32;0.25;;;;;;;16.65;47.27;96424.13;10370469;28;20034;-32
2023/03/16 17:41:25;;;;;;;0.17;0.17;;;;;;;16.66;47.90;96415.72;10382195;28;20040;-33
2023/03/16 17:46:29;;;;;;;1.67;0.35;;;;;;;16.76;49.99;96414.88;10371226;28;20065;-32
2023/03/16 17:51:31;;;;;;;3.65;0.52;;;;;;;16.80;51.06;96411.50;10374043;28;20052;-34
2023/03/16 17:56:32;;;;;;;2.85;0.73;;;;;;;16.72;49.12;96412.34;10372742;28;20521;-33
2023/03/16 18:01:33;;;;;;;2.45;0.73;;;;;;;16.69;48.50;96408.13;10379138;28;20109;-34
2023/03/16 18:06:34;;;;;;;2.15;0.43;;;;;;;16.72;47.98;96402.25;10374939;28;20041;-32
2023/03/16 18:11:38;;;;;;;2.10;1.50;;;;;;;16.73;47.32;96394.66;10384945;28;20038;-32
2023/03/16 18:16:39;;;;;;;4.25;0.50;;;;;;;16.71;47.47;96398.03;10368041;28;20034;-33
2023/03/16 18:21:39;;;;;;;3.60;0.30;;;;;;;16.71;47.66;96395.50;10392181;28;20288;-33
2023/03/16 18:26:40;;;;;;;1.05;0.50;;;;;;;16.69;47.76;96397.19;10382500;28;20092;-33
2023/03/16 18:31:41;;;;;;;0.70;0.50;;;;;;;16.66;49.08;96398.03;10388634;28;20041;-36
2023/03/16 18:36:44;;;;;;;1.30;0.50;;;;;;;16.70;48.03;96397.16;10386869;28;20092;-33
2023/03/16 18:41:47;;;;;;;1.27;0.45;;;;;;;16.68;47.31;96393.81;10388746;28;20026;-31
2023/03/16 18:46:49;;;;;;;0.30;0.30;;;;;;;16.69;47.66;96402.25;10384629;28;20029;-32
2023/03/16 18:51:52;;;;;;;2.85;0.47;;;;;;;16.65;47.51;96391.28;10390159;28;20083;-33
2023/03/16 18:56:53;;;;;;;0.73;0.40;;;;;;;16.68;47.67;96393.81;10378648;28;20556;-32
2023/03/16 19:01:54;;;;;;;4.80;0.52;;;;;;;16.72;49.28;96390.47;10388394;28;20100;-32
2023/03/16 19:06:55;;;;;;;2.63;0.43;;;;;;;16.78;50.04;96388.78;10386961;28;20041;-33
2023/03/16 19:11:56;;;;;;;2.60;0.60;;;;;;;16.80;50.25;96388.75;10381159;28;20299;-33
2023/03/16 19:16:57;;;;;;;0.63;0.43;;;;;;;16.77;48.72;96381.19;10381171;28;20033;-36
2023/03/16 19:22:11;;;;;;;0.90;0.52;;;;;;;16.73;47.94;96393.81;10384947;28;20035;-33
2023/03/16 19:27:34;;;;;;;2.58;1.23;;;;;;;16.71;48.31;96387.91;10385950;28;20108;-33
2023/03/16 19:32:37;;;;;;;1.30;0.60;;;;;;;16.71;47.94;96391.28;10390090;28;20055;-32
2023/03/16 19:37:37;;;;;;;1.60;0.47;;;;;;;16.70;47.99;96384.53;10383528;28;20057;-32
2023/03/16 19:42:39;;;;;;;1.10;0.40;;;;;;;16.70;47.78;96389.59;10385562;28;20118;-33
2023/03/16 19:47:40;;;;;;;0.88;0.40;;;;;;;16.64;47.62;96374.44;10382548;28;20114;-33
2023/03/16 19:52:41;;;;;;;2.15;0.50;;;;;;;16.68;47.83;96376.09;10390932;28;20481;-33
2023/03/16 19:57:41;;;;;;;4.75;0.73;;;;;;;16.46;45.48;96371.84;10371742;28;20041;-32
2023/03/16 20:02:42;;;;;;;5.07;0.95;;;;;;;16.61;46.10;96379.47;10374650;28;20504;-31
2023/03/16 20:07:42;;;;;;;3.07;0.80;;;;;;;16.61;46.91;96379.47;10373823;28;20046;-33
2023/03/16 20:12:43;;;;;;;3.35;0.80;;;;;;;16.65;47.26;96366.00;10377128;28;20038;-33
2023/03/16 20:17:44;;;;;;;4.57;0.77;;;;;;;16.59;47.38;96349.97;10368506;28;20041;-33
2023/03/16 20:22:44;;;;;;;1.13;0.65;;;;;;;16.72;50.28;96357.59;10383039;28;20168;-33
2023/03/16 20:27:52;;;;;;;3.37;0.87;;;;;;;16.77;50.22;96357.59;10385147;28;20457;-33
2023/03/16 20:32:52;;;;;;;1.20;0.60;;;;;;;16.72;48.24;96350.00;10389035;28;20116;-33
2023/03/16 20:37:54;;;;;;;4.10;0.70;;;;;;;16.72;48.04;96352.53;10383589;28;20037;-33
2023/03/16 20:42:55;;;;;;;2.08;0.47;;;;;;;16.70;48.46;96349.16;10383189;28;20412;-33
2023/03/16 20:47:55;;;;;;;1.55;0.35;;;;;;;16.70;47.70;96344.09;10382363;28;20040;-32
2023/03/16 20:52:58;;;;;;;3.53;0.47;;;;;;;16.71;48.01;96353.34;10386615;28;20029;-34
2023/03/16 20:58:00;;;;;;;1.48;0.50;;;;;;;16.72;47.87;96341.56;10387930;28;20338;-33
2023/03/16 21:03:04;;;;;;;2.00;0.90;;;;;;;16.72;47.56;96331.47;10395920;28;20030;-34
2023/03/16 21:08:05;;;;;;;2.63;0.70;;;;;;;16.72;49.11;96332.31;10392932;28;20398;-33
2023/03/16 21:13:13;;;;;;;3.03;0.70;;;;;;;16.71;49.25;96345.78;10397954;28;20038;-32
2023/03/16 21:18:19;;;;;;;1.10;0.55;;;;;;;16.72;48.37;96337.38;10398841;28;20045;-32
2023/03/16 21:23:21;;;;;;;2.53;0.97;;;;;;;16.71;48.88;96325.56;10396939;28;20408;-33
2023/03/16 21:28:24;;;;;;;2.17;0.85;;;;;;;16.75;48.98;96332.31;10391156;28;20034;-33
2023/03/16 21:33:30;;;;;;;1.13;1.02;;;;;;;16.78;50.53;96328.09;10400157;28;20447;-33
2023/03/16 21:38:32;;;;;;;3.08;0.70;;;;;;;16.84;53.08;96332.31;10393265;28;20558;-33
2023/03/16 21:43:32;;;;;;;3.72;0.90;;;;;;;16.83;54.08;96318.00;10395361;28;20060;-33
2023/03/16 21:48:36;;;;;;;1.55;0.88;;;;;;;16.82;52.02;96322.19;10391258;28;20029;-32
2023/03/16 21:53:38;;;;;;;1.08;0.52;;;;;;;16.79;49.58;96311.22;10390727;28;20110;-33
2023/03/16 21:58:38;;;;;;;3.88;0.73;;;;;;;16.78;49.63;96312.94;10385025;28;20037;-35
2023/03/16 22:03:39;;;;;;;1.00;0.60;;;;;;;16.77;48.81;96311.25;10391566;28;20042;-35
2023/03/16 22:08:39;;;;;;;3.70;0.77;;;;;;;16.77;48.07;96300.28;10389366;28;20040;-33
2023/03/16 22:13:40;;;;;;;1.50;0.53;;;;;;;16.77;47.62;96305.34;10388587;28;20037;-33
2023/03/16 22:18:40;;;;;;;2.35;0.70;;;;;;;16.76;47.65;96298.59;10394624;28;20342;-33
2023/03/16 22:23:41;;;;;;;1.20;0.68;;;;;;;16.75;47.42;96284.28;10393598;28;20037;-33
2023/03/16 22:28:41;;;;;;;0.98;0.47;;;;;;;16.72;47.33;96269.13;10389957;28;20068;-33
2023/03/16 22:33:44;;;;;;;1.90;0.55;;;;;;;16.74;47.11;96277.53;10397609;28;20033;-33
2023/03/16 22:38:49;;;;;;;1.60;0.43;;;;;;;16.72;47.11;96269.13;10386487;28;20037;-35
2023/03/16 22:43:49;;;;;;;1.23;0.90;;;;;;;16.73;47.03;96263.22;10380688;28;20098;-33
2023/03/16 22:48:51;;;;;;;3.20;0.68;;;;;;;16.73;46.93;96269.09;10393603;28;20120;-34
2023/03/16 22:53:55;;;;;;;1.80;0.40;;;;;;;16.71;53.88;96259.84;10390940;28;20033;-37
2023/03/16 22:58:59;;;;;;;0.95;0.50;;;;;;;16.73;53.80;96263.22;10392118;28;20029;-33
2023/03/16 23:04:00;;;;;;;1.35;0.50;;;;;;;16.73;52.92;96253.13;10394698;28;20061;-33
2023/03/16 23:09:01;;;;;;;0.60;0.30;;;;;;;16.72;48.08;96261.53;10384090;28;20065;-33
2023/03/16 23:14:01;;;;;;;0.70;0.50;;;;;;;16.73;47.52;96258.16;10393426;28;20040;-32
2023/03/16 23:19:21;;;;;;;0.93;0.40;;;;;;;16.72;47.85;96261.53;10396280;28;20506;-33
2023/03/16 23:24:22;;;;;;;1.50;0.32;;;;;;;16.71;47.80;96257.31;10385105;28;20564;-35
2023/03/16 23:29:23;;;;;;;0.90;0.40;;;;;;;16.71;47.22;96249.72;10386662;28;20046;-33
2023/03/16 23:34:25;;;;;;;0.85;0.60;;;;;;;16.71;47.05;96257.31;10382651;28;20041;-33
2023/03/16 23:39:25;;;;;;;0.50;0.40;;;;;;;16.71;47.00;96248.91;10387235;28;20033;-33
2023/03/16 23:44:27;;;;;;;0.35;0.35;;;;;;;16.66;46.86;96231.22;10391308;28;20029;-34